Time;durP1;ratioP1;P1;durP2;ratioP2;P2;SDS_P1;SDS_P2;PMS_P1;PMS_P2;Temp;Humidity;BMP_temperature;BMP_pressure;BME280_temperature;BME280_humidity;BME280_pressure;Samples;Min_cycle;Max_cycle;Signal;HPM_P1;HPM_P2
2022/07/10 00:02:22;;;;;;;8.90;7.30;;;;;;;13.26;72.59;97989.77;105027;1287;25333;-84
2022/07/10 00:04:50;;;;;;;8.50;7.20;;;;;;;13.23;72.46;97983.77;105467;1288;22790;-83
2022/07/10 00:07:18;;;;;;;9.10;7.00;;;;;;;13.21;72.44;97982.45;105736;1287;22590;-82
2022/07/10 00:09:46;;;;;;;10.40;7.30;;;;;;;13.15;72.61;97984.34;104877;1287;25570;-82
2022/07/10 00:12:13;;;;;;;8.90;7.20;;;;;;;13.09;72.46;97980.48;104901;1287;25243;-82
2022/07/10 00:14:41;;;;;;;9.60;7.10;;;;;;;13.11;73.04;97983.63;104881;1287;24102;-83
2022/07/10 00:17:09;;;;;;;8.50;7.40;;;;;;;13.11;73.51;97982.06;104851;1287;26822;-83
2022/07/10 00:19:37;;;;;;;12.60;7.60;;;;;;;13.13;73.58;97978.98;104979;1287;22672;-83
2022/07/10 00:22:05;;;;;;;9.60;7.40;;;;;;;13.18;73.86;97977.92;105004;1287;22946;-85
2022/07/10 00:24:33;;;;;;;10.50;7.60;;;;;;;13.18;73.70;97977.61;104771;1287;22735;-86
2022/07/10 00:27:01;;;;;;;12.90;7.70;;;;;;;13.11;73.49;97976.65;105067;1287;22649;-88
2022/07/10 00:29:29;;;;;;;10.10;7.70;;;;;;;13.05;73.72;97971.25;105255;1288;23534;-83
2022/07/10 00:31:57;;;;;;;10.50;8.30;;;;;;;12.99;73.61;97967.48;105226;1287;24099;-83
2022/07/10 00:34:24;;;;;;;8.40;7.20;;;;;;;12.90;74.17;97965.39;105075;1287;24163;-87
2022/07/10 00:36:52;;;;;;;9.30;7.60;;;;;;;12.77;75.03;97966.40;104857;1288;25428;-86
2022/07/10 00:39:20;;;;;;;10.90;8.40;;;;;;;12.62;75.46;97962.98;104953;1287;23322;-88
2022/07/10 00:41:48;;;;;;;10.30;8.20;;;;;;;12.52;75.55;97966.06;105087;1287;24215;-86
2022/07/10 00:44:16;;;;;;;12.00;8.70;;;;;;;12.42;75.54;97963.60;105094;1287;24387;-89
2022/07/10 00:46:44;;;;;;;9.50;7.90;;;;;;;12.39;75.82;97960.23;105026;1287;22564;-87
2022/07/10 00:49:12;;;;;;;11.70;8.40;;;;;;;12.32;75.71;97957.15;105056;1287;22580;-89
2022/07/10 00:51:40;;;;;;;12.70;8.40;;;;;;;12.25;75.74;97954.80;104806;1287;22559;-89
2022/07/10 00:54:08;;;;;;;8.40;7.60;;;;;;;12.21;76.74;97951.64;105032;1287;24884;-86
2022/07/10 00:56:36;;;;;;;13.30;7.60;;;;;;;12.15;76.60;97954.56;104998;1287;25437;-87
2022/07/10 00:59:04;;;;;;;9.90;8.60;;;;;;;12.14;76.73;97955.77;105029;1287;24236;-87
2022/07/10 01:01:32;;;;;;;9.20;8.30;;;;;;;12.17;76.69;97952.02;105004;1287;22577;-86
2022/07/10 01:04:00;;;;;;;10.30;9.20;;;;;;;12.20;76.46;97955.40;104903;1287;22593;-88
2022/07/10 01:06:28;;;;;;;13.10;8.70;;;;;;;12.23;76.72;97948.89;104942;1287;22642;-85
2022/07/10 01:08:56;;;;;;;11.40;9.00;;;;;;;12.27;76.76;97942.59;104834;1288;23204;-87
2022/07/10 01:11:24;;;;;;;12.30;8.70;;;;;;;12.33;76.84;97940.89;104947;1287;24277;-85
2022/07/10 01:13:52;;;;;;;10.00;8.70;;;;;;;12.40;76.76;97938.60;104988;1287;22586;-87
2022/07/10 01:16:22;;;;;;;11.20;9.00;;;;;;;12.47;76.69;97935.52;107356;1286;22696;-85
2022/07/10 01:18:50;;;;;;;9.70;8.70;;;;;;;12.52;76.96;97932.44;106720;1287;23917;-87
2022/07/10 01:21:28;;;;;;;10.30;9.30;;;;;;;12.56;77.05;97929.77;104969;1287;24001;-86
2022/07/10 01:23:56;;;;;;;10.50;8.30;;;;;;;12.58;77.04;97925.30;104975;1287;22660;-88
2022/07/10 01:26:25;;;;;;;11.20;9.10;;;;;;;12.53;77.50;97922.20;104973;1287;23188;-87
2022/07/10 01:28:54;;;;;;;9.40;8.20;;;;;;;12.50;77.57;97919.42;104940;1287;22660;-88
2022/07/10 01:31:26;;;;;;;10.50;8.90;;;;;;;12.49;77.97;97919.98;104828;1287;22580;-88
2022/07/10 01:33:55;;;;;;;12.10;10.80;;;;;;;12.50;77.54;97918.81;104952;1287;25667;-88
2022/07/10 01:36:24;;;;;;;13.40;10.80;;;;;;;12.52;77.91;97919.42;104976;1287;22690;-87
2022/07/10 01:38:54;;;;;;;13.10;11.20;;;;;;;12.50;77.64;97913.35;104943;1287;25367;-86
2022/07/10 01:41:22;;;;;;;15.60;11.00;;;;;;;12.50;77.89;97914.88;104995;1288;22566;-89
2022/07/10 01:43:51;;;;;;;13.00;10.60;;;;;;;12.52;78.30;97909.20;104719;1287;22642;-89
2022/07/10 01:46:20;;;;;;;14.30;11.20;;;;;;;12.55;78.19;97903.02;104591;1288;22753;-86
2022/07/10 01:48:48;;;;;;;12.70;10.70;;;;;;;12.60;78.07;97891.99;104655;1287;22709;-87
2022/07/10 01:51:16;;;;;;;12.40;10.60;;;;;;;12.66;78.28;97890.71;104976;1287;23234;-87
2022/07/10 01:53:44;;;;;;;16.00;10.90;;;;;;;12.68;78.17;97883.28;104754;1287;232041;-86
2022/07/10 01:56:13;;;;;;;13.90;11.80;;;;;;;12.71;78.57;97889.27;104937;1287;22598;-86
2022/07/10 01:58:41;;;;;;;12.20;10.90;;;;;;;12.70;78.66;97883.02;104936;1287;22660;-88
2022/07/10 02:01:11;;;;;;;12.40;10.90;;;;;;;12.70;78.86;97888.69;104955;1287;25521;-87
2022/07/10 02:06:26;;;;;;;12.50;10.70;;;;;;;12.77;78.88;97885.06;104952;1287;22660;-87
2022/07/10 02:08:54;;;;;;;13.70;11.40;;;;;;;12.78;79.50;97882.23;104960;1287;24183;-87
2022/07/10 02:11:22;;;;;;;15.10;11.60;;;;;;;12.77;79.84;97879.98;104967;1287;22670;-89
2022/07/10 02:13:50;;;;;;;15.00;11.60;;;;;;;12.77;79.86;97882.74;104964;1287;24397;-88
2022/07/10 02:16:18;;;;;;;14.00;11.20;;;;;;;12.77;79.68;97878.32;105008;1287;24258;-86
2022/07/10 02:18:46;;;;;;;14.50;11.50;;;;;;;12.78;80.24;97880.32;104962;1287;25236;-87
2022/07/10 02:21:14;;;;;;;15.20;12.00;;;;;;;12.77;79.79;97880.48;104929;1287;22581;-85
2022/07/10 02:23:42;;;;;;;13.20;11.80;;;;;;;12.74;79.67;97879.46;105038;1287;22720;-86
2022/07/10 02:26:10;;;;;;;12.40;11.20;;;;;;;12.74;79.92;97881.91;105873;1287;23018;-84
2022/07/10 02:28:38;;;;;;;12.00;10.50;;;;;;;12.73;79.65;97881.02;107140;1287;22504;-87
2022/07/10 02:31:06;;;;;;;13.80;10.90;;;;;;;12.71;79.90;97878.77;104934;1287;22700;-88
2022/07/10 02:33:36;;;;;;;14.80;12.80;;;;;;;12.73;79.81;97871.98;105027;1286;23951;-87
2022/07/10 02:36:05;;;;;;;12.50;11.30;;;;;;;12.74;79.84;97872.65;105010;1287;22580;-87
2022/07/10 02:38:33;;;;;;;13.60;11.20;;;;;;;12.71;80.06;97870.45;104914;1287;22559;-90
2022/07/10 02:41:00;;;;;;;14.70;13.20;;;;;;;12.68;80.28;97866.74;104947;1287;23420;-89
2022/07/10 02:43:28;;;;;;;14.30;12.90;;;;;;;12.67;80.11;97863.42;104940;1287;25403;-86
2022/07/10 02:45:56;;;;;;;13.40;12.10;;;;;;;12.67;80.13;97858.94;104914;1287;22557;-90
2022/07/10 02:48:24;;;;;;;14.70;12.00;;;;;;;12.68;80.30;97856.77;104915;1287;22591;-87
2022/07/10 02:50:52;;;;;;;14.70;11.50;;;;;;;12.70;80.49;97847.92;104896;1287;22559;-89
2022/07/10 02:53:20;;;;;;;14.00;12.60;;;;;;;12.73;80.76;97848.66;104924;1287;22687;-87
2022/07/10 02:55:48;;;;;;;13.60;12.20;;;;;;;12.72;80.79;97848.59;104934;1287;22635;-88
2022/07/10 02:58:17;;;;;;;13.90;12.40;;;;;;;12.68;80.68;97846.58;104918;1288;22614;-90
2022/07/10 03:00:45;;;;;;;14.10;11.90;;;;;;;12.69;80.70;97847.23;105008;1287;22812;-89
2022/07/10 03:03:14;;;;;;;14.00;12.40;;;;;;;12.69;80.80;97842.83;104964;1287;23410;-85
2022/07/10 03:05:41;;;;;;;13.00;11.70;;;;;;;12.71;80.86;97845.57;105002;1287;22651;-85
2022/07/10 03:08:10;;;;;;;14.70;12.10;;;;;;;12.74;81.49;97844.59;104906;1287;25427;-88
2022/07/10 03:10:38;;;;;;;14.90;13.30;;;;;;;12.72;81.97;97844.68;104975;1287;24783;-87
2022/07/10 03:13:07;;;;;;;14.20;12.80;;;;;;;12.69;81.68;97842.27;104946;1288;22603;-88
2022/07/10 03:15:35;;;;;;;13.00;11.70;;;;;;;12.72;81.65;97846.59;104924;1287;22732;-88
2022/07/10 03:18:03;;;;;;;14.10;12.40;;;;;;;12.76;81.70;97843.20;104947;1287;22567;-87
2022/07/10 03:20:30;;;;;;;12.90;11.40;;;;;;;12.79;82.21;97844.55;104894;1287;22671;-88
2022/07/10 03:22:58;;;;;;;14.90;13.40;;;;;;;12.82;82.49;97841.23;104908;1287;23536;-86
2022/07/10 03:25:26;;;;;;;15.30;13.30;;;;;;;12.83;82.96;97839.52;104900;1288;22669;-87
2022/07/10 03:27:54;;;;;;;14.90;13.30;;;;;;;12.83;82.76;97840.23;104661;1287;22585;-86
2022/07/10 03:30:22;;;;;;;14.30;12.30;;;;;;;12.86;82.97;97836.08;104867;1288;22567;-86
2022/07/10 03:32:50;;;;;;;14.10;11.90;;;;;;;12.90;82.43;97836.39;104715;1287;24287;-87
2022/07/10 03:35:18;;;;;;;14.80;13.30;;;;;;;12.94;83.59;97834.11;104974;1287;22559;-86
2022/07/10 03:37:46;;;;;;;13.30;12.00;;;;;;;12.93;84.07;97837.38;105609;1287;23043;-85
2022/07/10 03:40:14;;;;;;;14.90;11.60;;;;;;;12.93;84.12;97832.14;106447;1287;24459;-89
2022/07/10 03:42:42;;;;;;;15.90;11.70;;;;;;;12.95;83.90;97832.00;104918;1287;24806;-86
2022/07/10 03:45:10;;;;;;;15.00;11.70;;;;;;;12.99;84.22;97828.52;104920;1287;25426;-89
2022/07/10 03:47:38;;;;;;;14.90;11.80;;;;;;;13.00;84.66;97825.66;104669;1287;22695;-90
2022/07/10 03:50:06;;;;;;;15.00;12.10;;;;;;;13.01;83.99;97823.75;104838;1287;22687;-87
2022/07/10 03:52:35;;;;;;;12.10;10.80;;;;;;;13.03;83.61;97823.40;104934;1287;25308;-89
2022/07/10 03:55:03;;;;;;;12.00;10.70;;;;;;;13.11;83.63;97827.61;104920;1287;22566;-87
2022/07/10 04:00:18;;;;;;;13.50;10.50;;;;;;;13.26;83.41;97823.73;105053;1288;22575;-90
2022/07/10 04:02:46;;;;;;;12.20;10.60;;;;;;;13.29;83.58;97822.76;104937;1289;22670;-88
2022/07/10 04:05:14;;;;;;;13.10;10.50;;;;;;;13.33;83.53;97819.38;104981;1287;22573;-88
2022/07/10 04:07:41;;;;;;;10.80;9.50;;;;;;;13.37;83.49;97820.33;104907;1287;24226;-88
2022/07/10 04:10:09;;;;;;;10.30;9.00;;;;;;;13.45;84.00;97819.95;104903;1287;22673;-88
2022/07/10 04:12:37;;;;;;;12.80;10.10;;;;;;;13.49;84.35;97818.85;104977;1287;24811;-89
2022/07/10 04:15:06;;;;;;;12.30;10.40;;;;;;;13.51;84.65;97821.33;104967;1287;22831;-90
2022/07/10 04:17:34;;;;;;;11.70;9.30;;;;;;;13.49;84.38;97824.86;104876;1288;25374;-87
2022/07/10 04:20:02;;;;;;;11.10;9.10;;;;;;;13.47;84.47;97830.49;105109;1287;22572;-90
2022/07/10 04:22:30;;;;;;;10.70;9.30;;;;;;;13.48;84.61;97826.84;104984;1287;24223;-93
2022/07/10 04:24:58;;;;;;;9.80;8.80;;;;;;;13.50;84.96;97826.83;105036;1288;22710;-89
2022/07/10 04:27:26;;;;;;;12.90;8.90;;;;;;;13.53;85.17;97829.91;105043;1287;22752;-89
2022/07/10 04:29:54;;;;;;;8.80;7.90;;;;;;;13.53;85.26;97831.09;105085;1287;22631;-90
2022/07/10 04:32:22;;;;;;;13.90;9.00;;;;;;;13.52;85.17;97829.95;104832;1287;22567;-90
2022/07/10 04:34:50;;;;;;;8.70;7.30;;;;;;;13.51;85.60;97829.54;104967;1289;25368;-89
2022/07/10 04:37:18;;;;;;;9.40;8.10;;;;;;;13.49;85.81;97828.29;104917;1288;25624;-90
2022/07/10 04:39:46;;;;;;;9.70;8.60;;;;;;;13.49;86.11;97826.27;104935;1287;25343;-88
2022/07/10 04:42:14;;;;;;;10.80;8.90;;;;;;;13.51;86.21;97823.96;105234;1287;25490;-87
2022/07/10 04:44:42;;;;;;;11.20;9.90;;;;;;;13.55;86.59;97827.79;107820;1287;24031;-86
2022/07/10 04:47:11;;;;;;;14.20;9.90;;;;;;;13.59;86.36;97828.47;106791;1288;24035;-88
2022/07/10 04:49:38;;;;;;;12.90;11.60;;;;;;;13.65;86.62;97828.13;105214;1287;23592;-91
2022/07/10 04:52:07;;;;;;;11.20;9.80;;;;;;;13.69;86.55;97826.36;105018;1287;22567;-87
2022/07/10 04:54:35;;;;;;;11.00;9.40;;;;;;;13.74;86.46;97828.59;105053;1287;24302;-88
2022/07/10 04:57:03;;;;;;;10.60;8.60;;;;;;;13.78;86.03;97827.20;104834;1288;24165;-87
2022/07/10 04:59:31;;;;;;;9.20;8.20;;;;;;;13.81;86.16;97829.51;104772;1287;22675;-87
2022/07/10 05:01:58;;;;;;;10.40;8.30;;;;;;;13.82;85.89;97828.77;104797;1287;22564;-85
2022/07/10 05:04:27;;;;;;;7.40;6.70;;;;;;;13.81;86.05;97830.68;104652;1287;22700;-86
2022/07/10 05:06:54;;;;;;;6.70;6.00;;;;;;;13.78;86.29;97825.38;104940;1287;22696;-86
2022/07/10 05:09:22;;;;;;;6.80;5.70;;;;;;;13.73;86.36;97829.00;104919;1288;22753;-88
2022/07/10 05:11:50;;;;;;;6.30;5.40;;;;;;;13.68;86.67;97826.55;105037;1287;25317;-88
2022/07/10 05:14:18;;;;;;;8.20;5.30;;;;;;;13.67;86.50;97829.58;104930;1287;22567;-87
2022/07/10 05:16:46;;;;;;;8.20;5.30;;;;;;;13.69;86.74;97831.75;104995;1287;22645;-90
2022/07/10 05:19:14;;;;;;;7.20;5.10;;;;;;;13.67;86.75;97828.75;104979;1287;23258;-86
2022/07/10 05:21:42;;;;;;;6.30;5.20;;;;;;;13.71;86.73;97832.48;104998;1288;22692;-88
2022/07/10 05:24:10;;;;;;;7.30;5.40;;;;;;;13.68;87.00;97834.59;104977;1287;23989;-87
2022/07/10 05:26:37;;;;;;;6.30;4.50;;;;;;;13.62;86.90;97839.97;105140;1287;22569;-89
2022/07/10 05:29:05;;;;;;;7.60;4.90;;;;;;;13.59;86.97;97836.60;105016;1288;26493;-87
2022/07/10 05:31:33;;;;;;;5.70;4.80;;;;;;;13.58;87.30;97840.05;104975;1287;22675;-88
2022/07/10 05:34:02;;;;;;;7.00;5.10;;;;;;;13.58;87.06;97837.39;105034;1287;22581;-87
2022/07/10 05:36:29;;;;;;;6.60;5.90;;;;;;;13.60;87.19;97842.97;104844;1287;24489;-87
2022/07/10 05:38:57;;;;;;;5.90;5.30;;;;;;;13.67;86.79;97835.95;105003;1288;22718;-85
2022/07/10 05:41:25;;;;;;;6.50;5.50;;;;;;;13.77;87.11;97834.06;105022;1287;22635;-89
2022/07/10 05:43:54;;;;;;;6.10;5.40;;;;;;;13.89;86.74;97833.19;104876;1288;23223;-90
2022/07/10 05:46:21;;;;;;;6.80;6.10;;;;;;;14.07;86.71;97832.31;105142;1287;25432;-85
2022/07/10 05:48:49;;;;;;;8.60;6.30;;;;;;;14.18;85.70;97830.98;105022;1288;25697;-86
2022/07/10 05:51:17;;;;;;;7.00;6.10;;;;;;;14.26;85.28;97828.61;105738;1287;22577;-84
2022/07/10 05:54:05;;;;;;;7.60;5.40;;;;;;;14.35;85.00;97835.16;107527;1287;24261;-87
2022/07/10 05:56:36;;;;;;;7.60;5.60;;;;;;;14.46;84.54;97834.07;105151;1287;22569;-87
2022/07/10 05:59:04;;;;;;;6.00;5.30;;;;;;;14.53;83.83;97836.71;105060;1287;24344;-85
2022/07/10 06:01:32;;;;;;;5.70;4.90;;;;;;;14.60;82.98;97839.14;104943;1287;22598;-87
2022/07/10 06:04:01;;;;;;;7.20;4.70;;;;;;;14.61;82.02;97840.89;105027;1287;22630;-87
2022/07/10 06:06:29;;;;;;;5.60;5.00;;;;;;;14.65;81.93;97843.17;104909;1287;24120;-86
2022/07/10 06:08:58;;;;;;;8.70;5.40;;;;;;;14.64;81.89;97843.67;104982;1287;22599;-89
2022/07/10 06:11:26;;;;;;;6.80;4.90;;;;;;;14.59;81.97;97839.48;104992;1287;22563;-86
2022/07/10 06:13:54;;;;;;;7.50;4.50;;;;;;;14.59;81.68;97839.34;104958;1287;22882;-86
2022/07/10 06:16:22;;;;;;;5.50;4.20;;;;;;;14.56;81.04;97834.88;105001;1287;22596;-87
2022/07/10 06:18:50;;;;;;;8.10;4.60;;;;;;;14.59;81.42;97827.94;105008;1287;26194;-87
2022/07/10 06:21:21;;;;;;;5.30;4.00;;;;;;;14.67;81.43;97828.35;104896;1288;23217;-87
2022/07/10 06:23:50;;;;;;;4.80;3.80;;;;;;;14.88;81.40;97829.87;104931;1287;22699;-86
2022/07/10 06:26:18;;;;;;;5.30;4.00;;;;;;;15.15;80.45;97826.09;105019;1287;23952;-86
2022/07/10 06:28:46;;;;;;;6.00;4.30;;;;;;;15.26;78.69;97833.70;104925;1287;24182;-87
2022/07/10 06:31:14;;;;;;;5.50;4.00;;;;;;;15.34;78.27;97833.23;104869;1291;25274;-84
2022/07/10 06:33:42;;;;;;;5.70;3.40;;;;;;;15.36;76.45;97835.44;104965;1287;22581;-88
2022/07/10 06:36:12;;;;;;;5.50;3.40;;;;;;;15.34;76.15;97830.39;105067;1287;22570;-89
2022/07/10 06:38:41;;;;;;;5.60;3.20;;;;;;;15.25;75.33;97833.92;105070;1288;25369;-87
2022/07/10 06:41:10;;;;;;;5.60;3.20;;;;;;;15.13;74.95;97828.26;104897;1287;23038;-90
2022/07/10 06:43:38;;;;;;;6.70;2.90;;;;;;;15.12;75.87;97823.50;104933;1287;24286;-89
2022/07/10 06:46:06;;;;;;;3.80;2.70;;;;;;;15.26;74.95;97820.71;104953;1287;23281;-86
2022/07/10 06:48:36;;;;;;;4.50;2.70;;;;;;;15.31;74.99;97816.77;104785;1288;24339;-89
2022/07/10 06:51:06;;;;;;;4.10;2.80;;;;;;;15.37;73.87;97809.70;104877;1288;24272;-87
2022/07/10 06:53:34;;;;;;;4.60;2.70;;;;;;;15.47;72.89;97817.02;105042;1287;24076;-88
2022/07/10 06:56:03;;;;;;;5.10;2.40;;;;;;;15.60;72.62;97815.12;105018;1287;25696;-85
2022/07/10 06:58:31;;;;;;;5.40;3.10;;;;;;;15.74;72.15;97817.52;105055;1287;22559;-86
2022/07/10 07:00:59;;;;;;;6.00;3.30;;;;;;;15.86;70.48;97823.91;105147;1287;22562;-83
2022/07/10 07:03:27;;;;;;;4.80;2.90;;;;;;;15.98;70.28;97832.23;108292;1287;22574;-80
2022/07/10 07:05:54;;;;;;;7.40;3.50;;;;;;;16.03;69.07;97837.05;106429;1287;24265;-86
2022/07/10 07:08:22;;;;;;;6.20;3.10;;;;;;;16.06;69.89;97829.08;105006;1288;22576;-87
2022/07/10 07:10:50;;;;;;;5.70;3.10;;;;;;;16.10;69.35;97827.57;104993;1287;22635;-89
2022/07/10 07:13:18;;;;;;;4.10;2.70;;;;;;;16.02;69.02;97829.93;105002;1287;22910;-88
2022/07/10 07:15:53;;;;;;;8.20;3.40;;;;;;;16.02;68.55;97832.35;105109;1287;22631;-86
2022/07/10 07:18:31;;;;;;;6.80;3.20;;;;;;;15.95;68.57;97835.12;104919;1287;24264;-84
2022/07/10 07:23:46;;;;;;;5.60;3.50;;;;;;;15.80;68.38;97846.17;105094;1288;22732;-88
2022/07/10 07:26:14;;;;;;;9.70;4.70;;;;;;;15.71;68.37;97850.23;105125;1287;22565;-84
2022/07/10 07:28:42;;;;;;;7.10;3.30;;;;;;;15.64;68.90;97847.23;105068;1288;22722;-85
2022/07/10 07:31:10;;;;;;;6.50;3.60;;;;;;;15.62;67.66;97851.90;104987;1287;22706;-85
2022/07/10 07:33:42;;;;;;;9.10;3.40;;;;;;;15.58;67.33;97848.30;105020;1287;22615;-84
2022/07/10 07:36:10;;;;;;;5.70;2.80;;;;;;;15.53;67.96;97854.83;105144;1287;22543;-84
2022/07/10 07:38:38;;;;;;;8.60;3.70;;;;;;;15.51;67.72;97850.15;104971;1287;25521;-86
2022/07/10 07:41:06;;;;;;;6.90;3.90;;;;;;;15.50;68.14;97847.95;104620;1287;22622;-84
2022/07/10 07:43:34;;;;;;;11.20;3.60;;;;;;;15.51;68.20;97858.30;104947;1287;22647;-84
2022/07/10 07:46:02;;;;;;;7.10;3.50;;;;;;;15.55;67.55;97855.19;105065;1287;24289;-84
2022/07/10 07:48:30;;;;;;;6.20;3.00;;;;;;;15.53;67.55;97856.11;104758;1288;22643;-85
2022/07/10 07:50:58;;;;;;;8.10;3.90;;;;;;;15.52;67.20;97857.11;104997;1287;24263;-86
2022/07/10 07:53:26;;;;;;;6.00;3.10;;;;;;;15.44;67.46;97855.34;104991;1287;22725;-87
2022/07/10 07:55:54;;;;;;;12.30;3.30;;;;;;;15.41;67.79;97849.94;104833;1288;25451;-84
2022/07/10 07:58:22;;;;;;;5.50;2.90;;;;;;;15.45;68.41;97850.71;105025;1287;22553;-85
2022/07/10 08:00:50;;;;;;;5.80;2.90;;;;;;;15.59;67.71;97847.21;105056;1287;22645;-86
2022/07/10 08:03:19;;;;;;;6.60;2.90;;;;;;;15.62;67.44;97853.06;104888;1289;22640;-86
2022/07/10 08:05:47;;;;;;;4.90;2.60;;;;;;;15.66;65.89;97867.61;105057;1288;22584;-85
2022/07/10 08:08:15;;;;;;;6.80;3.00;;;;;;;15.54;64.89;97865.94;104616;1290;22580;-84
2022/07/10 08:10:43;;;;;;;4.80;2.40;;;;;;;15.45;64.43;97866.11;104957;1287;22622;-85
2022/07/10 08:13:12;;;;;;;8.00;3.90;;;;;;;15.52;65.25;97862.38;105740;1287;22616;-83
2022/07/10 08:15:40;;;;;;;5.10;2.60;;;;;;;15.84;65.86;97859.52;107183;1287;22741;-86
2022/07/10 08:18:09;;;;;;;8.60;2.80;;;;;;;16.04;64.55;97854.80;104799;1287;24305;-86
2022/07/10 08:20:37;;;;;;;5.20;2.60;;;;;;;16.00;64.38;97854.95;104839;1288;22573;-87
2022/07/10 08:23:05;;;;;;;5.90;3.00;;;;;;;15.96;64.80;97858.00;104845;1287;22573;-84
2022/07/10 08:25:33;;;;;;;7.50;2.50;;;;;;;15.91;64.53;97861.40;105020;1287;22643;-85
2022/07/10 08:28:03;;;;;;;5.20;2.40;;;;;;;15.74;64.22;97866.70;104984;1287;22591;-85
2022/07/10 08:30:32;;;;;;;3.20;2.10;;;;;;;15.59;64.16;97867.37;105212;1287;25377;-83
2022/07/10 08:33:00;;;;;;;5.40;2.30;;;;;;;15.43;65.09;97870.37;104861;1287;22697;-85
2022/07/10 08:35:28;;;;;;;6.40;2.80;;;;;;;15.35;65.31;97874.09;104974;1288;22634;-85
2022/07/10 08:37:56;;;;;;;8.00;2.60;;;;;;;15.29;64.84;97872.33;105044;1287;22778;-84
2022/07/10 08:40:24;;;;;;;5.30;2.70;;;;;;;15.28;65.22;97875.44;104893;1287;22589;-85
2022/07/10 08:42:52;;;;;;;5.30;2.70;;;;;;;15.39;64.02;97878.41;104848;1288;24436;-83
2022/07/10 08:45:20;;;;;;;6.50;2.40;;;;;;;15.53;63.30;97869.17;105081;1287;26814;-84
2022/07/10 08:47:49;;;;;;;7.40;3.20;;;;;;;15.76;63.18;97864.30;104959;1287;25458;-85
2022/07/10 08:50:22;;;;;;;9.60;2.90;;;;;;;15.99;62.44;97871.52;104937;1287;22572;-85
2022/07/10 08:53:02;;;;;;;6.70;2.70;;;;;;;16.02;61.69;97866.06;104913;1287;22722;-84
2022/07/10 08:55:30;;;;;;;5.90;2.30;;;;;;;15.98;61.57;97858.16;104915;1287;25488;-84
2022/07/10 08:57:59;;;;;;;8.80;2.60;;;;;;;16.01;61.70;97856.95;105045;1287;24107;-84
2022/07/10 09:00:27;;;;;;;5.60;2.60;;;;;;;16.23;61.22;97867.92;104995;1290;22581;-86
2022/07/10 09:02:56;;;;;;;5.60;2.50;;;;;;;16.29;60.46;97866.15;104883;1287;24240;-84
2022/07/10 09:05:26;;;;;;;7.00;3.00;;;;;;;16.44;60.74;97863.76;104789;1287;22824;-83
2022/07/10 09:07:55;;;;;;;5.40;2.80;;;;;;;16.57;60.16;97867.91;104658;1288;26561;-83
2022/07/10 09:10:25;;;;;;;4.20;2.60;;;;;;;16.64;59.23;97874.91;104889;1287;25375;-83
2022/07/10 09:13:04;;;;;;;4.70;2.70;;;;;;;16.68;58.50;97865.78;105097;1287;24309;-84
2022/07/10 09:15:33;;;;;;;6.30;2.50;;;;;;;16.73;58.33;97857.64;105220;1287;22579;-85
2022/07/10 09:18:08;;;;;;;4.60;2.20;;;;;;;16.79;58.25;97857.63;104964;1287;25480;-86
2022/07/10 09:20:39;;;;;;;5.40;2.70;;;;;;;16.82;57.91;97857.80;104965;1287;22739;-83
2022/07/10 09:23:20;;;;;;;6.10;2.80;;;;;;;16.82;57.99;97860.82;106441;1287;22598;-84
2022/07/10 09:25:50;;;;;;;4.30;2.70;;;;;;;16.79;58.18;97858.64;106110;1287;25500;-84
2022/07/10 09:28:22;;;;;;;4.10;2.40;;;;;;;16.85;57.99;97861.13;105023;1288;22583;-85
2022/07/10 09:30:50;;;;;;;5.40;2.40;;;;;;;16.89;57.63;97859.50;105057;1287;22552;-82
2022/07/10 09:33:25;;;;;;;6.50;2.50;;;;;;;16.76;56.80;97858.54;105109;1288;22567;-79
2022/07/10 09:36:16;;;;;;;6.20;2.50;;;;;;;16.54;56.95;97871.38;105133;1287;25380;-77
2022/07/10 09:38:44;;;;;;;6.80;2.60;;;;;;;16.29;57.65;97875.14;105146;1287;24349;-79
2022/07/10 09:41:23;;;;;;;7.00;3.40;;;;;;;16.09;58.03;97867.00;105184;1287;23878;-79
2022/07/10 09:43:54;;;;;;;7.10;2.90;;;;;;;16.00;58.83;97871.58;105009;1287;22563;-83
2022/07/10 09:46:24;;;;;;;6.50;2.40;;;;;;;15.90;59.26;97877.42;104771;1287;22613;-80
2022/07/10 09:49:06;;;;;;;5.10;2.60;;;;;;;15.86;59.33;97879.79;105173;1288;22580;-79
2022/07/10 09:51:44;;;;;;;6.60;3.00;;;;;;;15.82;59.39;97875.66;105124;1288;25632;-80
2022/07/10 09:54:18;;;;;;;6.20;2.70;;;;;;;15.80;59.32;97889.05;104947;1287;24227;-79
2022/07/10 09:56:50;;;;;;;6.20;2.70;;;;;;;15.74;59.54;97887.42;105033;1287;22669;-80
2022/07/10 09:59:20;;;;;;;6.40;2.90;;;;;;;15.73;59.88;97884.91;104872;1287;22719;-82
2022/07/10 10:01:50;;;;;;;7.30;2.60;;;;;;;15.68;59.02;97885.65;104921;1288;22586;-84
2022/07/10 10:04:23;;;;;;;5.30;3.00;;;;;;;15.61;59.57;97879.69;105081;1287;22733;-77
2022/07/10 10:06:53;;;;;;;6.20;2.40;;;;;;;15.75;60.17;97877.30;105068;1287;24227;-79
2022/07/10 10:09:25;;;;;;;5.40;2.20;;;;;;;16.03;58.95;97880.53;104867;1287;25507;-80
2022/07/10 10:12:02;;;;;;;7.30;3.40;;;;;;;16.15;58.39;97874.52;104913;1290;25445;-80
2022/07/10 10:14:31;;;;;;;5.40;2.90;;;;;;;16.28;58.15;97869.21;104893;1288;22764;-81
2022/07/10 10:17:00;;;;;;;6.20;2.60;;;;;;;16.51;57.61;97864.31;104924;1287;24314;-82
2022/07/10 10:22:18;;;;;;;5.20;2.40;;;;;;;16.96;54.08;97860.72;104782;1287;22692;-80
2022/07/10 10:24:46;;;;;;;5.70;2.20;;;;;;;17.07;53.69;97855.90;104597;1287;22593;-80
2022/07/10 10:27:15;;;;;;;5.20;2.30;;;;;;;17.25;53.18;97861.83;104674;1287;24525;-81
2022/07/10 10:29:45;;;;;;;5.20;2.70;;;;;;;17.22;51.62;97858.71;105570;1287;24244;-80
2022/07/10 10:32:13;;;;;;;8.20;2.70;;;;;;;17.25;52.93;97858.35;104938;1287;22648;-85
2022/07/10 10:34:43;;;;;;;6.00;2.20;;;;;;;17.39;52.06;97854.94;104908;1287;22758;-86
2022/07/10 10:37:50;;;;;;;6.00;2.50;;;;;;;17.36;51.80;97856.45;105032;1287;22713;-83
2022/07/10 10:40:32;;;;;;;7.30;2.40;;;;;;;17.56;52.29;97854.33;104043;1297;22610;-84
2022/07/10 10:43:19;;;;;;;6.80;3.90;;;;;;;17.46;51.74;97857.48;104299;1297;22714;-81
2022/07/10 10:45:48;;;;;;;6.20;2.50;;;;;;;17.27;51.67;97857.70;104199;1297;22732;-85
2022/07/10 10:48:20;;;;;;;5.60;2.40;;;;;;;17.00;52.15;97863.58;103896;1297;22798;-83
2022/07/10 10:51:05;;;;;;;5.50;2.20;;;;;;;16.77;52.59;97857.15;104188;1297;26639;-84
2022/07/10 10:53:33;;;;;;;5.80;2.30;;;;;;;16.70;53.37;97861.80;104273;1297;22730;-82
2022/07/10 10:56:03;;;;;;;9.40;2.60;;;;;;;16.69;52.50;97861.02;104079;1297;22872;-82
2022/07/10 10:58:40;;;;;;;5.60;2.60;;;;;;;16.61;53.28;97861.11;104011;1297;22660;-80
2022/07/10 11:01:21;;;;;;;7.10;3.30;;;;;;;16.44;53.86;97859.49;104092;1297;24460;-81
2022/07/10 11:04:04;;;;;;;8.70;4.50;;;;;;;16.25;54.52;97871.12;104026;1297;25602;-80
2022/07/10 11:06:58;;;;;;;9.30;4.10;;;;;;;16.02;54.71;97869.70;104130;1297;22582;-80
2022/07/10 11:09:28;;;;;;;13.10;4.30;;;;;;;15.78;55.43;97865.06;103959;1297;23032;-80
2022/07/10 11:12:06;;;;;;;7.90;3.60;;;;;;;15.70;55.84;97860.41;104253;1297;25224;-81
2022/07/10 11:14:39;;;;;;;9.10;3.40;;;;;;;15.56;56.16;97863.61;104204;1297;24336;-80
2022/07/10 11:17:09;;;;;;;7.60;3.60;;;;;;;15.50;56.38;97864.56;104713;1287;22634;-78
2022/07/10 11:19:37;;;;;;;8.30;3.10;;;;;;;15.49;56.60;97860.08;104623;1287;22568;-78
2022/07/10 11:22:34;;;;;;;8.30;3.10;;;;;;;15.54;56.69;97866.03;104581;1287;22633;-79
2022/07/10 11:25:43;;;;;;;6.80;3.60;;;;;;;15.57;56.49;97862.33;104994;1287;22665;-80
2022/07/10 11:28:12;;;;;;;5.00;2.50;;;;;;;15.64;55.89;97860.59;105113;1287;23213;-78
2022/07/10 11:30:52;;;;;;;5.60;2.80;;;;;;;15.72;56.32;97857.38;105114;1287;22695;-81
2022/07/10 11:33:22;;;;;;;5.30;2.60;;;;;;;15.87;55.53;97850.70;105141;1287;22871;-80
2022/07/10 11:35:52;;;;;;;5.50;2.50;;;;;;;15.99;56.14;97851.12;104934;1287;24221;-80
2022/07/10 11:38:24;;;;;;;7.40;2.50;;;;;;;16.35;55.47;97850.01;104938;1287;22597;-81
2022/07/10 11:40:54;;;;;;;4.90;2.50;;;;;;;16.55;54.56;97853.41;105132;1287;24356;-78
2022/07/10 11:43:25;;;;;;;7.00;2.70;;;;;;;16.75;54.26;97850.48;105112;1287;22554;-80